sensor_id;sensor_type;location;lat;lon;timestamp;pressure;altitude;pressure_sealevel;temperature
67515;BMP280;60646;55.802;37.032;2022-10-31T00:01:27;98069.44;;;5.80
67515;BMP280;60646;55.802;37.032;2022-10-31T00:03:53;98068.00;;;5.85
67515;BMP280;60646;55.802;37.032;2022-10-31T00:06:19;98050.69;;;5.67
67515;BMP280;60646;55.802;37.032;2022-10-31T00:08:46;98068.72;;;5.85
67515;BMP280;60646;55.802;37.032;2022-10-31T00:11:13;98070.66;;;5.85
67515;BMP280;60646;55.802;37.032;2022-10-31T00:13:38;98027.09;;;5.58
67515;BMP280;60646;55.802;37.032;2022-10-31T00:16:05;98050.41;;;5.76
67515;BMP280;60646;55.802;37.032;2022-10-31T00:18:31;98031.66;;;5.68
67515;BMP280;60646;55.802;37.032;2022-10-31T00:21:00;98027.31;;;5.65
67515;BMP280;60646;55.802;37.032;2022-10-31T00:23:26;98017.44;;;5.60
67515;BMP280;60646;55.802;37.032;2022-10-31T00:25:52;98015.53;;;5.61
67515;BMP280;60646;55.802;37.032;2022-10-31T00:28:18;98009.50;;;5.66
67515;BMP280;60646;55.802;37.032;2022-10-31T00:30:44;98016.47;;;5.69
67515;BMP280;60646;55.802;37.032;2022-10-31T00:33:10;98037.13;;;5.87
67515;BMP280;60646;55.802;37.032;2022-10-31T00:35:36;98012.16;;;5.66
67515;BMP280;60646;55.802;37.032;2022-10-31T00:38:02;98011.19;;;5.69
67515;BMP280;60646;55.802;37.032;2022-10-31T00:40:27;98016.94;;;5.73
67515;BMP280;60646;55.802;37.032;2022-10-31T00:42:53;98012.84;;;5.78
67515;BMP280;60646;55.802;37.032;2022-10-31T00:45:19;98019.13;;;5.80
67515;BMP280;60646;55.802;37.032;2022-10-31T00:47:45;98011.19;;;5.69
67515;BMP280;60646;55.802;37.032;2022-10-31T00:50:10;97999.59;;;5.72
67515;BMP280;60646;55.802;37.032;2022-10-31T00:52:37;97993.16;;;5.62
67515;BMP280;60646;55.802;37.032;2022-10-31T00:55:03;97979.91;;;5.51
67515;BMP280;60646;55.802;37.032;2022-10-31T00:57:29;98000.84;;;5.71
67515;BMP280;60646;55.802;37.032;2022-10-31T00:59:54;98002.50;;;5.74
67515;BMP280;60646;55.802;37.032;2022-10-31T01:02:20;97979.91;;;5.62
67515;BMP280;60646;55.802;37.032;2022-10-31T01:04:46;97987.59;;;5.71
67515;BMP280;60646;55.802;37.032;2022-10-31T01:07:12;97995.28;;;5.69
67515;BMP280;60646;55.802;37.032;2022-10-31T01:09:39;97991.91;;;5.74
67515;BMP280;60646;55.802;37.032;2022-10-31T01:12:06;98016.94;;;5.90
67515;BMP280;60646;55.802;37.032;2022-10-31T01:14:31;97987.81;;;5.73
67515;BMP280;60646;55.802;37.032;2022-10-31T01:16:57;98006.81;;;5.88
67515;BMP280;60646;55.802;37.032;2022-10-31T01:19:23;98016.44;;;5.91
67515;BMP280;60646;55.802;37.032;2022-10-31T01:21:49;97999.84;;;5.85
67515;BMP280;60646;55.802;37.032;2022-10-31T01:24:15;97989.00;;;5.72
67515;BMP280;60646;55.802;37.032;2022-10-31T01:26:40;97996.22;;;5.77
67515;BMP280;60646;55.802;37.032;2022-10-31T01:29:08;98000.09;;;5.76
67515;BMP280;60646;55.802;37.032;2022-10-31T01:31:36;98024.16;;;5.89
67515;BMP280;60646;55.802;37.032;2022-10-31T01:34:03;98023.41;;;5.89
67515;BMP280;60646;55.802;37.032;2022-10-31T01:36:34;98027.03;;;5.91
67515;BMP280;60646;55.802;37.032;2022-10-31T01:39:12;98014.75;;;5.77
67515;BMP280;60646;55.802;37.032;2022-10-31T01:41:41;98034.03;;;5.83
67515;BMP280;60646;55.802;37.032;2022-10-31T01:49:34;98008.78;;;5.60
67515;BMP280;60646;55.802;37.032;2022-10-31T01:52:06;98020.09;;;5.60
67515;BMP280;60646;55.802;37.032;2022-10-31T01:54:39;98039.56;;;5.74
67515;BMP280;60646;55.802;37.032;2022-10-31T01:57:09;98025.91;;;5.53
67515;BMP280;60646;55.802;37.032;2022-10-31T01:59:39;98022.03;;;5.49
67515;BMP280;60646;55.802;37.032;2022-10-31T02:02:06;98032.41;;;5.52
67515;BMP280;60646;55.802;37.032;2022-10-31T02:04:33;98040.81;;;5.51
67515;BMP280;60646;55.802;37.032;2022-10-31T02:07:06;98052.34;;;5.59
67515;BMP280;60646;55.802;37.032;2022-10-31T02:09:36;98055.94;;;5.56
67515;BMP280;60646;55.802;37.032;2022-10-31T02:12:03;98055.50;;;5.52
67515;BMP280;60646;55.802;37.032;2022-10-31T02:14:31;98054.03;;;5.51
67515;BMP280;60646;55.802;37.032;2022-10-31T02:16:57;98026.59;;;5.32
67515;BMP280;60646;55.802;37.032;2022-10-31T02:19:52;98048.50;;;5.43
67515;BMP280;60646;55.802;37.032;2022-10-31T02:22:35;98028.03;;;5.33
67515;BMP280;60646;55.802;37.032;2022-10-31T02:36:27;98039.09;;;5.31
67515;BMP280;60646;55.802;37.032;2022-10-31T02:51:53;98017.22;;;5.03
67515;BMP280;60646;55.802;37.032;2022-10-31T02:54:24;98004.69;;;4.98
67515;BMP280;60646;55.802;37.032;2022-10-31T02:57:04;98023.00;;;5.12
67515;BMP280;60646;55.802;37.032;2022-10-31T02:59:32;98001.59;;;4.99
67515;BMP280;60646;55.802;37.032;2022-10-31T03:02:13;98040.56;;;5.21
67515;BMP280;60646;55.802;37.032;2022-10-31T03:08:44;98037.19;;;5.20
67515;BMP280;60646;55.802;37.032;2022-10-31T03:13:34;98009.00;;;4.95
67515;BMP280;60646;55.802;37.032;2022-10-31T03:16:07;98041.75;;;5.20
67515;BMP280;60646;55.802;37.032;2022-10-31T03:19:23;98020.09;;;4.99
67515;BMP280;60646;55.802;37.032;2022-10-31T03:21:35;98033.31;;;5.10
67515;BMP280;60646;55.802;37.032;2022-10-31T03:24:02;98038.59;;;5.10
67515;BMP280;60646;55.802;37.032;2022-10-31T03:26:35;98018.91;;;5.06
67515;BMP280;60646;55.802;37.032;2022-10-31T03:29:06;98041.53;;;5.24
67515;BMP280;60646;55.802;37.032;2022-10-31T03:31:57;98017.72;;;5.07
67515;BMP280;60646;55.802;37.032;2022-10-31T03:34:28;98025.84;;;5.09
67515;BMP280;60646;55.802;37.032;2022-10-31T03:36:57;98042.94;;;5.25
67515;BMP280;60646;55.802;37.032;2022-10-31T03:39:24;98029.47;;;5.11
67515;BMP280;60646;55.802;37.032;2022-10-31T03:42:00;98030.19;;;5.12
67515;BMP280;60646;55.802;37.032;2022-10-31T03:44:29;98028.03;;;5.10
67515;BMP280;60646;55.802;37.032;2022-10-31T03:47:00;98033.31;;;5.10
67515;BMP280;60646;55.802;37.032;2022-10-31T03:49:27;98055.00;;;5.26
67515;BMP280;60646;55.802;37.032;2022-10-31T03:54:31;98033.31;;;5.10
67515;BMP280;60646;55.802;37.032;2022-10-31T03:57:09;98048.03;;;5.17
67515;BMP280;60646;55.802;37.032;2022-10-31T03:59:45;98062.44;;;5.33
67515;BMP280;60646;55.802;37.032;2022-10-31T04:02:32;98050.66;;;5.22
67515;BMP280;60646;55.802;37.032;2022-10-31T04:05:00;98045.84;;;5.15
67515;BMP280;60646;55.802;37.032;2022-10-31T04:07:33;98065.34;;;5.35
67515;BMP280;60646;55.802;37.032;2022-10-31T04:10:05;98074.72;;;5.36
67515;BMP280;60646;55.802;37.032;2022-10-31T04:12:33;98046.09;;;5.17
67515;BMP280;60646;55.802;37.032;2022-10-31T04:15:13;98072.06;;;5.36
67515;BMP280;60646;55.802;37.032;2022-10-31T04:17:50;98073.78;;;5.39
67515;BMP280;60646;55.802;37.032;2022-10-31T04:20:40;98079.09;;;5.39
67515;BMP280;60646;55.802;37.032;2022-10-31T04:23:19;98073.78;;;5.39
67515;BMP280;60646;55.802;37.032;2022-10-31T04:25:45;98065.34;;;5.24
67515;BMP280;60646;55.802;37.032;2022-10-31T04:28:11;98046.81;;;5.07
67515;BMP280;60646;55.802;37.032;2022-10-31T04:30:37;98058.81;;;5.13
67515;BMP280;60646;55.802;37.032;2022-10-31T04:33:21;98057.84;;;5.05
67515;BMP280;60646;55.802;37.032;2022-10-31T04:35:47;98081.22;;;5.29
67515;BMP280;60646;55.802;37.032;2022-10-31T04:38:13;98091.81;;;5.29
67515;BMP280;60646;55.802;37.032;2022-10-31T04:40:39;98089.16;;;5.24
67515;BMP280;60646;55.802;37.032;2022-10-31T04:43:37;98077.59;;;5.15
67515;BMP280;60646;55.802;37.032;2022-10-31T04:46:03;98092.03;;;5.26
67515;BMP280;60646;55.802;37.032;2022-10-31T04:48:29;98068.66;;;5.02
67515;BMP280;60646;55.802;37.032;2022-10-31T04:51:00;98101.16;;;5.25
67515;BMP280;60646;55.802;37.032;2022-10-31T04:53:27;98102.38;;;5.24
67515;BMP280;60646;55.802;37.032;2022-10-31T04:56:24;98102.38;;;5.18
67515;BMP280;60646;55.802;37.032;2022-10-31T04:59:17;98126.94;;;5.24
67515;BMP280;60646;55.802;37.032;2022-10-31T05:01:51;98116.34;;;5.24
67515;BMP280;60646;55.802;37.032;2022-10-31T05:04:23;98121.88;;;5.20
67515;BMP280;60646;55.802;37.032;2022-10-31T05:06:49;98130.78;;;5.23
67515;BMP280;60646;55.802;37.032;2022-10-31T05:09:15;98138.22;;;5.25
67515;BMP280;60646;55.802;37.032;2022-10-31T05:11:42;98110.03;;;5.10
67515;BMP280;60646;55.802;37.032;2022-10-31T05:14:22;98109.31;;;5.04
67515;BMP280;60646;55.802;37.032;2022-10-31T05:17:24;98117.50;;;5.06
67515;BMP280;60646;55.802;37.032;2022-10-31T05:20:32;98154.81;;;5.25
67515;BMP280;60646;55.802;37.032;2022-10-31T05:23:20;98149.72;;;5.10
67515;BMP280;60646;55.802;37.032;2022-10-31T05:25:47;98135.53;;;5.08
67515;BMP280;60646;55.802;37.032;2022-10-31T05:28:13;98171.44;;;5.26
67515;BMP280;60646;55.802;37.032;2022-10-31T05:30:39;98142.28;;;5.03
67515;BMP280;60646;55.802;37.032;2022-10-31T05:33:09;98179.59;;;5.28
67515;BMP280;60646;55.802;37.032;2022-10-31T05:35:53;98169.94;;;5.13
67515;BMP280;60646;55.802;37.032;2022-10-31T05:42:07;98193.78;;;5.25
67515;BMP280;60646;55.802;37.032;2022-10-31T05:44:33;98184.59;;;5.09
67515;BMP280;60646;55.802;37.032;2022-10-31T05:47:16;98185.31;;;5.09
67515;BMP280;60646;55.802;37.032;2022-10-31T05:50:00;98208.47;;;5.26
67515;BMP280;60646;55.802;37.032;2022-10-31T05:52:44;98189.19;;;5.08
67515;BMP280;60646;55.802;37.032;2022-10-31T05:55:24;98231.34;;;5.29
67515;BMP280;60646;55.802;37.032;2022-10-31T05:58:13;98237.13;;;5.33
67515;BMP280;60646;55.802;37.032;2022-10-31T06:00:43;98210.38;;;5.19
67515;BMP280;60646;55.802;37.032;2022-10-31T06:03:10;98196.88;;;5.06
67515;BMP280;60646;55.802;37.032;2022-10-31T06:05:47;98228.19;;;5.25
67515;BMP280;60646;55.802;37.032;2022-10-31T06:08:13;98232.06;;;5.24
67515;BMP280;60646;55.802;37.032;2022-10-31T06:10:40;98218.09;;;5.17
67515;BMP280;60646;55.802;37.032;2022-10-31T06:13:06;98239.56;;;5.31
67515;BMP280;60646;55.802;37.032;2022-10-31T06:15:54;98252.25;;;5.27
67515;BMP280;60646;55.802;37.032;2022-10-31T06:18:26;98252.53;;;5.29
67515;BMP280;60646;55.802;37.032;2022-10-31T06:20:53;98255.91;;;5.29
67515;BMP280;60646;55.802;37.032;2022-10-31T06:23:20;98272.06;;;5.37
67515;BMP280;60646;55.802;37.032;2022-10-31T06:25:51;98287.47;;;5.44
67515;BMP280;60646;55.802;37.032;2022-10-31T06:28:17;98297.38;;;5.49
67515;BMP280;60646;55.802;37.032;2022-10-31T06:31:01;98297.78;;;5.31
67515;BMP280;60646;55.802;37.032;2022-10-31T06:33:30;98304.28;;;5.41
67515;BMP280;60646;55.802;37.032;2022-10-31T06:36:00;98325.84;;;5.65
67515;BMP280;60646;55.802;37.032;2022-10-31T06:38:26;98307.72;;;5.47
67515;BMP280;60646;55.802;37.032;2022-10-31T06:40:53;98335.25;;;5.66
67515;BMP280;60646;55.802;37.032;2022-10-31T06:43:21;98314.97;;;5.52
67515;BMP280;60646;55.802;37.032;2022-10-31T06:45:48;98357.41;;;5.74
67515;BMP280;60646;55.802;37.032;2022-10-31T06:48:37;98351.66;;;5.81
67515;BMP280;60646;55.802;37.032;2022-10-31T06:51:28;98336.69;;;5.67
67515;BMP280;60646;55.802;37.032;2022-10-31T06:53:54;98346.59;;;5.78
67515;BMP280;60646;55.802;37.032;2022-10-31T06:56:25;98374.09;;;5.91
67515;BMP280;60646;55.802;37.032;2022-10-31T06:58:54;98358.13;;;5.75
67515;BMP280;60646;55.802;37.032;2022-10-31T07:01:44;98365.63;;;5.87
67515;BMP280;60646;55.802;37.032;2022-10-31T07:04:17;98392.69;;;6.02
67515;BMP280;60646;55.802;37.032;2022-10-31T07:06:50;98384.97;;;6.04
67515;BMP280;60646;55.802;37.032;2022-10-31T07:09:18;98398.72;;;6.08
67515;BMP280;60646;55.802;37.032;2022-10-31T07:11:45;98412.00;;;6.14
67515;BMP280;60646;55.802;37.032;2022-10-31T07:14:12;98413.19;;;6.13
67515;BMP280;60646;55.802;37.032;2022-10-31T07:16:42;98416.84;;;6.21
67515;BMP280;60646;55.802;37.032;2022-10-31T07:19:47;98439.00;;;6.23
67515;BMP280;60646;55.802;37.032;2022-10-31T07:22:16;98460.47;;;6.26
67515;BMP280;60646;55.802;37.032;2022-10-31T07:24:44;98460.72;;;6.28
67515;BMP280;60646;55.802;37.032;2022-10-31T07:27:38;98465.06;;;6.31
67515;BMP280;60646;55.802;37.032;2022-10-31T07:30:14;98478.56;;;6.33
67515;BMP280;60646;55.802;37.032;2022-10-31T07:32:53;98478.81;;;6.35
67515;BMP280;60646;55.802;37.032;2022-10-31T07:35:31;98494.69;;;6.29
67515;BMP280;60646;55.802;37.032;2022-10-31T07:38:18;98508.00;;;6.46
67515;BMP280;60646;55.802;37.032;2022-10-31T07:41:07;98511.66;;;6.48
67515;BMP280;60646;55.802;37.032;2022-10-31T07:43:43;98468.16;;;6.23
67515;BMP280;60646;55.802;37.032;2022-10-31T07:47:14;98497.88;;;6.39
67515;BMP280;60646;55.802;37.032;2022-10-31T07:50:27;98523.00;;;6.60
67515;BMP280;60646;55.802;37.032;2022-10-31T07:53:15;98533.88;;;6.62
67515;BMP280;60646;55.802;37.032;2022-10-31T07:56:05;98512.59;;;6.45
67515;BMP280;60646;55.802;37.032;2022-10-31T07:59:09;98541.34;;;6.69
67515;BMP280;60646;55.802;37.032;2022-10-31T08:01:59;98549.56;;;6.71
67515;BMP280;60646;55.802;37.032;2022-10-31T08:04:47;98487.00;;;6.37
67515;BMP280;60646;55.802;37.032;2022-10-31T08:07:29;98564.31;;;6.78
67515;BMP280;60646;55.802;37.032;2022-10-31T08:10:04;98555.13;;;6.73
67515;BMP280;60646;55.802;37.032;2022-10-31T08:16:43;98533.38;;;6.58
67515;BMP280;60646;55.802;37.032;2022-10-31T08:19:14;98547.66;;;6.66
67515;BMP280;60646;55.802;37.032;2022-10-31T08:21:40;98558.97;;;6.72
67515;BMP280;60646;55.802;37.032;2022-10-31T08:24:44;98585.81;;;6.96
67515;BMP280;60646;55.802;37.032;2022-10-31T08:27:16;98593.53;;;6.94
67515;BMP280;60646;55.802;37.032;2022-10-31T08:29:42;98595.47;;;6.99
67515;BMP280;60646;55.802;37.032;2022-10-31T08:32:08;98568.88;;;6.77
67515;BMP280;60646;55.802;37.032;2022-10-31T08:34:52;98581.00;;;6.89
67515;BMP280;60646;55.802;37.032;2022-10-31T08:37:36;98586.78;;;6.93
67515;BMP280;60646;55.802;37.032;2022-10-31T08:40:04;98567.94;;;6.80
67515;BMP280;60646;55.802;37.032;2022-10-31T08:42:33;98597.91;;;6.97
67515;BMP280;60646;55.802;37.032;2022-10-31T08:45:01;98612.91;;;7.11
67515;BMP280;60646;55.802;37.032;2022-10-31T08:47:29;98603.47;;;7.05
67515;BMP280;60646;55.802;37.032;2022-10-31T08:49:59;98630.78;;;7.16
67515;BMP280;60646;55.802;37.032;2022-10-31T08:53:06;98648.13;;;7.17
67515;BMP280;60646;55.802;37.032;2022-10-31T08:55:42;98613.84;;;7.08
67515;BMP280;60646;55.802;37.032;2022-10-31T08:58:24;98648.41;;;7.25
67515;BMP280;60646;55.802;37.032;2022-10-31T09:00:59;98626.88;;;7.17
67515;BMP280;60646;55.802;37.032;2022-10-31T09:03:30;98646.25;;;7.35
67515;BMP280;60646;55.802;37.032;2022-10-31T09:06:01;98635.84;;;7.14
67515;BMP280;60646;55.802;37.032;2022-10-31T09:08:30;98647.19;;;7.32
67515;BMP280;60646;55.802;37.032;2022-10-31T09:11:11;98654.47;;;7.25
67515;BMP280;60646;55.802;37.032;2022-10-31T09:14:01;98627.63;;;7.12
67515;BMP280;60646;55.802;37.032;2022-10-31T09:16:36;98613.56;;;6.95
67515;BMP280;60646;55.802;37.032;2022-10-31T09:19:04;98627.31;;;6.99
67515;BMP280;60646;55.802;37.032;2022-10-31T09:21:35;98679.38;;;7.39
67515;BMP280;60646;55.802;37.032;2022-10-31T09:24:04;98671.09;;;7.32
67515;BMP280;60646;55.802;37.032;2022-10-31T09:26:33;98656.38;;;7.31
67515;BMP280;60646;55.802;37.032;2022-10-31T09:29:21;98677.63;;;7.42
67515;BMP280;60646;55.802;37.032;2022-10-31T09:31:56;98685.16;;;7.43
67515;BMP280;60646;55.802;37.032;2022-10-31T09:34:45;98673.09;;;7.48
67515;BMP280;60646;55.802;37.032;2022-10-31T09:37:31;98687.56;;;7.52
67515;BMP280;60646;55.802;37.032;2022-10-31T09:40:03;98658.81;;;7.34
67515;BMP280;60646;55.802;37.032;2022-10-31T09:49:12;98698.44;;;7.49
67515;BMP280;60646;55.802;37.032;2022-10-31T09:56:21;98756.94;;;7.71
67515;BMP280;60646;55.802;37.032;2022-10-31T10:02:30;98711.72;;;7.54
67515;BMP280;60646;55.802;37.032;2022-10-31T10:04:59;98760.56;;;7.73
67515;BMP280;60646;55.802;37.032;2022-10-31T10:08:36;98787.63;;;7.77
67515;BMP280;60646;55.802;37.032;2022-10-31T10:11:58;98765.16;;;7.62
67515;BMP280;60646;55.802;37.032;2022-10-31T10:14:42;98799.72;;;7.73
67515;BMP280;60646;55.802;37.032;2022-10-31T10:17:42;98806.22;;;7.77
67515;BMP280;60646;55.802;37.032;2022-10-31T10:26:46;98814.25;;;7.83
67515;BMP280;60646;55.802;37.032;2022-10-31T10:32:28;98770.94;;;7.66
67515;BMP280;60646;55.802;37.032;2022-10-31T10:35:32;98821.03;;;7.95
67515;BMP280;60646;55.802;37.032;2022-10-31T10:41:20;98734.88;;;7.43
67515;BMP280;60646;55.802;37.032;2022-10-31T10:43:57;98831.44;;;8.10
67515;BMP280;60646;55.802;37.032;2022-10-31T10:46:41;98804.81;;;7.99
67515;BMP280;60646;55.802;37.032;2022-10-31T10:49:50;98814.28;;;8.05
67515;BMP280;60646;55.802;37.032;2022-10-31T10:57:55;98841.13;;;8.13
67515;BMP280;60646;55.802;37.032;2022-10-31T11:00:46;98828.31;;;8.06
67515;BMP280;60646;55.802;37.032;2022-10-31T11:03:40;98809.19;;;8.07
67515;BMP280;60646;55.802;37.032;2022-10-31T11:06:36;98779.44;;;7.92
67515;BMP280;60646;55.802;37.032;2022-10-31T11:09:11;98777.28;;;7.96
67515;BMP280;60646;55.802;37.032;2022-10-31T11:11:45;98773.41;;;7.97
67515;BMP280;60646;55.802;37.032;2022-10-31T11:14:17;98841.13;;;8.41
67515;BMP280;60646;55.802;37.032;2022-10-31T11:17:42;98838.50;;;8.46
67515;BMP280;60646;55.802;37.032;2022-10-31T11:21:19;98825.66;;;8.45
67515;BMP280;60646;55.802;37.032;2022-10-31T11:28:20;98844.28;;;8.33
67515;BMP280;60646;55.802;37.032;2022-10-31T11:30:59;98833.41;;;8.20
67515;BMP280;60646;55.802;37.032;2022-10-31T11:36:20;98864.84;;;8.39
67515;BMP280;60646;55.802;37.032;2022-10-31T11:38:47;98850.09;;;8.43
67515;BMP280;60646;55.802;37.032;2022-10-31T11:41:26;98858.59;;;8.47
67515;BMP280;60646;55.802;37.032;2022-10-31T11:43:58;98828.81;;;8.26
67515;BMP280;60646;55.802;37.032;2022-10-31T11:46:38;98815.75;;;8.23
67515;BMP280;60646;55.802;37.032;2022-10-31T11:49:10;98838.72;;;8.26
67515;BMP280;60646;55.802;37.032;2022-10-31T11:51:38;98855.91;;;8.36
67515;BMP280;60646;55.802;37.032;2022-10-31T11:54:25;98853.22;;;8.42
67515;BMP280;60646;55.802;37.032;2022-10-31T12:00:40;98863.41;;;8.38
67515;BMP280;60646;55.802;37.032;2022-10-31T12:06:26;98854.69;;;8.43
67515;BMP280;60646;55.802;37.032;2022-10-31T12:08:54;98859.53;;;8.39
67515;BMP280;60646;55.802;37.032;2022-10-31T12:11:45;98849.13;;;8.41
67515;BMP280;60646;55.802;37.032;2022-10-31T12:34:02;98849.84;;;8.24
67515;BMP280;60646;55.802;37.032;2022-10-31T12:45:54;98905.00;;;8.41
67515;BMP280;60646;55.802;37.032;2022-10-31T12:58:23;98874.72;;;8.10
67515;BMP280;60646;55.802;37.032;2022-10-31T13:06:47;98917.06;;;8.30
67515;BMP280;60646;55.802;37.032;2022-10-31T13:09:32;98928.22;;;8.35
67515;BMP280;60646;55.802;37.032;2022-10-31T13:12:01;98936.91;;;8.41
67515;BMP280;60646;55.802;37.032;2022-10-31T13:17:01;98939.81;;;8.31
67515;BMP280;60646;55.802;37.032;2022-10-31T13:19:38;98928.94;;;8.41
67515;BMP280;60646;55.802;37.032;2022-10-31T13:22:31;98911.72;;;8.19
67515;BMP280;60646;55.802;37.032;2022-10-31T13:25:11;98943.22;;;8.38
67515;BMP280;60646;55.802;37.032;2022-10-31T13:30:28;98941.78;;;8.37
67515;BMP280;60646;55.802;37.032;2022-10-31T13:33:08;98955.06;;;8.37
67515;BMP280;60646;55.802;37.032;2022-10-31T13:44:23;98974.66;;;8.33
67515;BMP280;60646;55.802;37.032;2022-10-31T13:46:49;98970.03;;;8.28
67515;BMP280;60646;55.802;37.032;2022-10-31T13:49:35;98992.09;;;8.35
67515;BMP280;60646;55.802;37.032;2022-10-31T13:54:44;99002.72;;;8.35
67515;BMP280;60646;55.802;37.032;2022-10-31T13:57:17;98991.06;;;8.26
67515;BMP280;60646;55.802;37.032;2022-10-31T13:59:56;98966.13;;;8.18
67515;BMP280;60646;55.802;37.032;2022-10-31T14:02:28;98971.72;;;8.20
67515;BMP280;60646;55.802;37.032;2022-10-31T14:05:00;98996.63;;;8.28
67515;BMP280;60646;55.802;37.032;2022-10-31T14:07:32;98980.41;;;8.15
67515;BMP280;60646;55.802;37.032;2022-10-31T14:10:19;99008.25;;;8.31
67515;BMP280;60646;55.802;37.032;2022-10-31T14:12:46;99014.56;;;8.28
67515;BMP280;60646;55.802;37.032;2022-10-31T14:17:52;98981.59;;;8.14
67515;BMP280;60646;55.802;37.032;2022-10-31T14:20:23;99004.63;;;8.28
67515;BMP280;60646;55.802;37.032;2022-10-31T14:22:53;99012.34;;;8.26
67515;BMP280;60646;55.802;37.032;2022-10-31T14:27:50;98995.13;;;8.11
67515;BMP280;60646;55.802;37.032;2022-10-31T14:30:20;99017.69;;;8.26
67515;BMP280;60646;55.802;37.032;2022-10-31T14:33:16;99018.91;;;8.25
67515;BMP280;60646;55.802;37.032;2022-10-31T14:38:38;99036.28;;;8.21
67515;BMP280;60646;55.802;37.032;2022-10-31T14:43:58;99050.56;;;8.23
67515;BMP280;60646;55.802;37.032;2022-10-31T14:51:50;99040.59;;;8.13
67515;BMP280;60646;55.802;37.032;2022-10-31T14:54:28;99048.59;;;8.18
67515;BMP280;60646;55.802;37.032;2022-10-31T14:57:00;99056.84;;;8.20
67515;BMP280;60646;55.802;37.032;2022-10-31T14:59:31;99049.06;;;8.11
67515;BMP280;60646;55.802;37.032;2022-10-31T15:04:55;99062.34;;;8.11
67515;BMP280;60646;55.802;37.032;2022-10-31T15:07:25;99050.22;;;8.05
67515;BMP280;60646;55.802;37.032;2022-10-31T15:12:43;99059.19;;;8.07
67515;BMP280;60646;55.802;37.032;2022-10-31T15:15:14;99060.63;;;8.08
67515;BMP280;60646;55.802;37.032;2022-10-31T15:17:45;99053.34;;;8.03
67515;BMP280;60646;55.802;37.032;2022-10-31T15:20:22;99080.28;;;8.22
67515;BMP280;60646;55.802;37.032;2022-10-31T15:22:50;99075.13;;;8.07
67515;BMP280;60646;55.802;37.032;2022-10-31T15:25:18;99063.47;;;7.99
67515;BMP280;60646;55.802;37.032;2022-10-31T15:27:45;99066.66;;;8.03
67515;BMP280;60646;55.802;37.032;2022-10-31T15:30:26;99099.84;;;8.19
67515;BMP280;60646;55.802;37.032;2022-10-31T15:32:53;99102.06;;;8.20
67515;BMP280;60646;55.802;37.032;2022-10-31T15:35:41;99091.09;;;8.07
67515;BMP280;60646;55.802;37.032;2022-10-31T15:38:37;99100.28;;;8.06
67515;BMP280;60646;55.802;37.032;2022-10-31T15:41:35;99112.94;;;8.22
67515;BMP280;60646;55.802;37.032;2022-10-31T15:44:12;99084.69;;;7.88
67515;BMP280;60646;55.802;37.032;2022-10-31T15:46:39;99101.22;;;8.03
67515;BMP280;60646;55.802;37.032;2022-10-31T15:49:15;99114.78;;;8.05
67515;BMP280;60646;55.802;37.032;2022-10-31T15:51:44;99129.81;;;8.14
67515;BMP280;60646;55.802;37.032;2022-10-31T15:54:13;99120.31;;;8.02
67515;BMP280;60646;55.802;37.032;2022-10-31T15:56:43;99136.81;;;8.11
67515;BMP280;60646;55.802;37.032;2022-10-31T15:59:24;99099.19;;;7.87
67515;BMP280;60646;55.802;37.032;2022-10-31T16:02:11;99147.72;;;8.13
67515;BMP280;60646;55.802;37.032;2022-10-31T16:04:52;99123.91;;;7.93
67515;BMP280;60646;55.802;37.032;2022-10-31T16:07:19;99119.06;;;7.97
67515;BMP280;60646;55.802;37.032;2022-10-31T16:10:02;99147.44;;;8.06
67515;BMP280;60646;55.802;37.032;2022-10-31T16:12:44;99147.38;;;8.00
67515;BMP280;60646;55.802;37.032;2022-10-31T16:15:15;99120.91;;;7.80
67515;BMP280;60646;55.802;37.032;2022-10-31T16:17:43;99142.50;;;7.99
67515;BMP280;60646;55.802;37.032;2022-10-31T16:20:28;99144.94;;;7.97
67515;BMP280;60646;55.802;37.032;2022-10-31T16:22:57;99154.34;;;7.92
67515;BMP280;60646;55.802;37.032;2022-10-31T16:25:36;99145.53;;;7.80
67515;BMP280;60646;55.802;37.032;2022-10-31T16:28:26;99157.53;;;7.96
67515;BMP280;60646;55.802;37.032;2022-10-31T16:30:54;99155.28;;;7.89
67515;BMP280;60646;55.802;37.032;2022-10-31T16:36:31;99164.44;;;7.88
67515;BMP280;60646;55.802;37.032;2022-10-31T16:38:58;99163.72;;;7.88
67515;BMP280;60646;55.802;37.032;2022-10-31T16:41:24;99143.41;;;7.59
67515;BMP280;60646;55.802;37.032;2022-10-31T16:43:51;99149.88;;;7.78
67515;BMP280;60646;55.802;37.032;2022-10-31T16:46:27;99154.94;;;7.76
67515;BMP280;60646;55.802;37.032;2022-10-31T16:48:53;99178.94;;;7.87
67515;BMP280;60646;55.802;37.032;2022-10-31T16:51:19;99165.81;;;7.78
67515;BMP280;60646;55.802;37.032;2022-10-31T16:53:45;99129.44;;;7.64
67515;BMP280;60646;55.802;37.032;2022-10-31T16:56:23;99149.13;;;7.77
67515;BMP280;60646;55.802;37.032;2022-10-31T16:58:49;99178.94;;;7.87
67515;BMP280;60646;55.802;37.032;2022-10-31T17:01:15;99160.50;;;7.78
67515;BMP280;60646;55.802;37.032;2022-10-31T17:03:41;99167.34;;;7.85
67515;BMP280;60646;55.802;37.032;2022-10-31T17:06:11;99223.03;;;7.99
67515;BMP280;60646;55.802;37.032;2022-10-31T17:08:37;99162.91;;;7.76
67515;BMP280;60646;55.802;37.032;2022-10-31T17:11:04;99173.13;;;7.83
67515;BMP280;60646;55.802;37.032;2022-10-31T17:13:31;99205.09;;;7.94
67515;BMP280;60646;55.802;37.032;2022-10-31T17:16:02;99191.66;;;7.77
67515;BMP280;60646;55.802;37.032;2022-10-31T17:18:28;99206.22;;;7.82
67515;BMP280;60646;55.802;37.032;2022-10-31T17:20:58;99220.66;;;8.01
67515;BMP280;60646;55.802;37.032;2022-10-31T17:23:24;99203.31;;;7.86
67515;BMP280;60646;55.802;37.032;2022-10-31T17:25:50;99207.22;;;7.85
67515;BMP280;60646;55.802;37.032;2022-10-31T17:28:19;99246.72;;;7.97
67515;BMP280;60646;55.802;37.032;2022-10-31T17:30:46;99203.56;;;7.82
67515;BMP280;60646;55.802;37.032;2022-10-31T17:33:14;99230.03;;;7.97
67515;BMP280;60646;55.802;37.032;2022-10-31T17:35:43;99225.78;;;7.79
67515;BMP280;60646;55.802;37.032;2022-10-31T17:38:10;99232.63;;;7.91
67515;BMP280;60646;55.802;37.032;2022-10-31T17:40:37;99238.91;;;7.88
67515;BMP280;60646;55.802;37.032;2022-10-31T17:43:03;99244.22;;;7.88
67515;BMP280;60646;55.802;37.032;2022-10-31T17:45:29;99224.41;;;7.63
67515;BMP280;60646;55.802;37.032;2022-10-31T17:47:55;99212.50;;;7.59
67515;BMP280;60646;55.802;37.032;2022-10-31T17:50:24;99232.72;;;7.71
67515;BMP280;60646;55.802;37.032;2022-10-31T17:52:50;99248.75;;;7.82